sensor_id;sensor_type;location;lat;lon;timestamp;pressure;altitude;pressure_sealevel;temperature;humidity
163;BME280;3946;48.958;8.284;2023-12-20T00:00:07;100663.97;;;5.61;100.00
163;BME280;3946;48.958;8.284;2023-12-20T00:02:54;100669.59;;;5.71;100.00
163;BME280;3946;48.958;8.284;2023-12-20T00:05:39;100664.25;;;5.54;100.00
163;BME280;3946;48.958;8.284;2023-12-20T00:08:25;100667.22;;;5.67;100.00
163;BME280;3946;48.958;8.284;2023-12-20T00:11:10;100659.94;;;5.54;100.00
163;BME280;3946;48.958;8.284;2023-12-20T00:13:55;100670.91;;;5.59;100.00
163;BME280;3946;48.958;8.284;2023-12-20T00:16:41;100670.22;;;5.54;100.00
163;BME280;3946;48.958;8.284;2023-12-20T00:19:27;100673.63;;;5.55;100.00
163;BME280;3946;48.958;8.284;2023-12-20T00:22:13;100676.78;;;5.63;100.00
163;BME280;3946;48.958;8.284;2023-12-20T00:24:58;100662.41;;;5.57;100.00
163;BME280;3946;48.958;8.284;2023-12-20T00:27:44;100672.84;;;5.53;100.00
163;BME280;3946;48.958;8.284;2023-12-20T00:30:29;100668.56;;;5.53;100.00
163;BME280;3946;48.958;8.284;2023-12-20T00:33:14;100666.66;;;5.58;100.00
163;BME280;3946;48.958;8.284;2023-12-20T00:36:01;100672.94;;;5.51;100.00
163;BME280;3946;48.958;8.284;2023-12-20T00:38:46;100686.25;;;5.61;100.00
163;BME280;3946;48.958;8.284;2023-12-20T00:41:32;100683.81;;;5.58;100.00
163;BME280;3946;48.958;8.284;2023-12-20T00:44:17;100692.19;;;5.63;100.00
163;BME280;3946;48.958;8.284;2023-12-20T00:47:03;100693.09;;;5.62;100.00
163;BME280;3946;48.958;8.284;2023-12-20T00:49:48;100689.91;;;5.55;100.00
163;BME280;3946;48.958;8.284;2023-12-20T00:52:34;100697.59;;;5.55;100.00
163;BME280;3946;48.958;8.284;2023-12-20T00:55:20;100692.97;;;5.65;100.00
163;BME280;3946;48.958;8.284;2023-12-20T00:58:05;100701.84;;;5.56;100.00
163;BME280;3946;48.958;8.284;2023-12-20T01:00:50;100706.94;;;5.58;100.00
163;BME280;3946;48.958;8.284;2023-12-20T01:03:36;100716.38;;;5.57;100.00
163;BME280;3946;48.958;8.284;2023-12-20T01:06:21;100711.19;;;5.59;100.00
163;BME280;3946;48.958;8.284;2023-12-20T01:09:08;100706.81;;;5.61;100.00
163;BME280;3946;48.958;8.284;2023-12-20T01:11:53;100700.84;;;5.60;100.00
163;BME280;3946;48.958;8.284;2023-12-20T01:14:39;100697.38;;;5.61;100.00
163;BME280;3946;48.958;8.284;2023-12-20T01:17:24;100697.34;;;5.63;100.00
163;BME280;3946;48.958;8.284;2023-12-20T01:20:10;100698.28;;;5.60;100.00
163;BME280;3946;48.958;8.284;2023-12-20T01:22:55;100694.97;;;5.57;100.00
163;BME280;3946;48.958;8.284;2023-12-20T01:25:42;100696.59;;;5.59;100.00
163;BME280;3946;48.958;8.284;2023-12-20T01:28:27;100699.84;;;5.65;100.00
163;BME280;3946;48.958;8.284;2023-12-20T01:31:12;100687.22;;;5.58;100.00
163;BME280;3946;48.958;8.284;2023-12-20T01:33:58;100685.78;;;5.51;100.00
163;BME280;3946;48.958;8.284;2023-12-20T01:36:43;100683.69;;;5.61;100.00
163;BME280;3946;48.958;8.284;2023-12-20T01:39:28;100690.19;;;5.70;100.00
163;BME280;3946;48.958;8.284;2023-12-20T01:42:15;100692.25;;;5.61;100.00
163;BME280;3946;48.958;8.284;2023-12-20T01:45:01;100679.50;;;5.58;100.00
163;BME280;3946;48.958;8.284;2023-12-20T01:47:46;100679.50;;;5.58;100.00
163;BME280;3946;48.958;8.284;2023-12-20T01:50:32;100675.31;;;5.56;100.00
163;BME280;3946;48.958;8.284;2023-12-20T01:53:21;100674.38;;;5.58;100.00
163;BME280;3946;48.958;8.284;2023-12-20T01:56:09;100677.09;;;5.54;100.00
163;BME280;3946;48.958;8.284;2023-12-20T01:58:56;100679.72;;;5.52;100.00
163;BME280;3946;48.958;8.284;2023-12-20T02:01:41;100683.53;;;5.66;100.00
163;BME280;3946;48.958;8.284;2023-12-20T02:04:27;100677.66;;;5.62;100.00
163;BME280;3946;48.958;8.284;2023-12-20T02:07:12;100674.94;;;5.67;100.00
163;BME280;3946;48.958;8.284;2023-12-20T02:09:58;100684.16;;;5.71;100.00
163;BME280;3946;48.958;8.284;2023-12-20T02:12:43;100688.22;;;5.54;100.00
163;BME280;3946;48.958;8.284;2023-12-20T02:15:30;100687.78;;;5.67;100.00
163;BME280;3946;48.958;8.284;2023-12-20T02:18:16;100681.91;;;5.63;100.00
163;BME280;3946;48.958;8.284;2023-12-20T02:21:01;100683.59;;;5.64;100.00
163;BME280;3946;48.958;8.284;2023-12-20T02:23:50;100682.69;;;5.65;100.00
163;BME280;3946;48.958;8.284;2023-12-20T02:26:35;100685.22;;;5.67;100.00
163;BME280;3946;48.958;8.284;2023-12-20T02:29:20;100677.28;;;5.71;100.00
163;BME280;3946;48.958;8.284;2023-12-20T02:32:06;100685.00;;;5.71;100.00
163;BME280;3946;48.958;8.284;2023-12-20T02:34:51;100690.94;;;5.73;100.00
163;BME280;3946;48.958;8.284;2023-12-20T02:37:36;100672.22;;;5.70;100.00
163;BME280;3946;48.958;8.284;2023-12-20T02:40:23;100688.66;;;5.66;100.00
163;BME280;3946;48.958;8.284;2023-12-20T02:43:08;100689.38;;;5.69;100.00
163;BME280;3946;48.958;8.284;2023-12-20T02:45:54;100702.09;;;5.72;100.00
163;BME280;3946;48.958;8.284;2023-12-20T02:48:39;100701.84;;;5.80;100.00
163;BME280;3946;48.958;8.284;2023-12-20T02:51:24;100693.63;;;5.70;100.00
163;BME280;3946;48.958;8.284;2023-12-20T02:54:10;100709.09;;;5.69;100.00
163;BME280;3946;48.958;8.284;2023-12-20T02:56:56;100704.56;;;5.75;100.00
163;BME280;3946;48.958;8.284;2023-12-20T02:59:42;100708.88;;;5.75;100.00
163;BME280;3946;48.958;8.284;2023-12-20T03:02:27;100708.88;;;5.75;100.00
163;BME280;3946;48.958;8.284;2023-12-20T03:05:13;100714.31;;;5.67;100.00
163;BME280;3946;48.958;8.284;2023-12-20T03:07:58;100721.06;;;5.70;100.00
163;BME280;3946;48.958;8.284;2023-12-20T03:10:43;100716.38;;;5.81;100.00
163;BME280;3946;48.958;8.284;2023-12-20T03:13:30;100708.53;;;5.84;100.00
163;BME280;3946;48.958;8.284;2023-12-20T03:16:15;100713.84;;;5.79;100.00
163;BME280;3946;48.958;8.284;2023-12-20T03:19:01;100703.16;;;5.68;100.00
163;BME280;3946;48.958;8.284;2023-12-20T03:21:46;100699.84;;;5.65;100.00
163;BME280;3946;48.958;8.284;2023-12-20T03:24:32;100703.94;;;5.69;100.00
163;BME280;3946;48.958;8.284;2023-12-20T03:27:17;100715.84;;;5.71;100.00
163;BME280;3946;48.958;8.284;2023-12-20T03:30:05;100720.94;;;5.73;100.00
163;BME280;3946;48.958;8.284;2023-12-20T03:32:50;100732.97;;;5.72;100.00
163;BME280;3946;48.958;8.284;2023-12-20T03:35:36;100730.28;;;5.75;100.00
163;BME280;3946;48.958;8.284;2023-12-20T03:38:22;100724.19;;;5.78;100.00
163;BME280;3946;48.958;8.284;2023-12-20T03:41:08;100722.47;;;5.78;100.00
163;BME280;3946;48.958;8.284;2023-12-20T03:43:53;100718.72;;;5.63;100.00
163;BME280;3946;48.958;8.284;2023-12-20T03:46:40;100719.94;;;5.77;100.00
163;BME280;3946;48.958;8.284;2023-12-20T03:49:25;100719.03;;;5.78;100.00
163;BME280;3946;48.958;8.284;2023-12-20T03:52:10;100727.66;;;5.77;100.00
163;BME280;3946;48.958;8.284;2023-12-20T03:54:56;100732.72;;;5.78;100.00
163;BME280;3946;48.958;8.284;2023-12-20T03:57:41;100724.72;;;5.86;100.00
163;BME280;3946;48.958;8.284;2023-12-20T04:00:26;100722.09;;;5.87;100.00
163;BME280;3946;48.958;8.284;2023-12-20T04:03:13;100728.94;;;5.88;100.00
163;BME280;3946;48.958;8.284;2023-12-20T04:05:58;100722.06;;;5.89;100.00
163;BME280;3946;48.958;8.284;2023-12-20T04:08:44;100724.63;;;5.89;100.00
163;BME280;3946;48.958;8.284;2023-12-20T04:11:29;100729.72;;;5.90;100.00
163;BME280;3946;48.958;8.284;2023-12-20T04:14:14;100733.13;;;5.91;100.00
163;BME280;3946;48.958;8.284;2023-12-20T04:17:00;100735.00;;;5.86;100.00
163;BME280;3946;48.958;8.284;2023-12-20T04:19:46;100719.50;;;5.89;100.00
163;BME280;3946;48.958;8.284;2023-12-20T04:22:32;100722.94;;;5.88;100.00
163;BME280;3946;48.958;8.284;2023-12-20T04:25:17;100729.72;;;5.90;100.00
163;BME280;3946;48.958;8.284;2023-12-20T04:28:03;100739.16;;;5.90;100.00
163;BME280;3946;48.958;8.284;2023-12-20T04:30:48;100739.16;;;5.90;100.00
163;BME280;3946;48.958;8.284;2023-12-20T04:33:33;100742.63;;;5.89;100.00
163;BME280;3946;48.958;8.284;2023-12-20T04:36:20;100753.78;;;5.88;100.00
163;BME280;3946;48.958;8.284;2023-12-20T04:39:05;100746.00;;;5.91;100.00
163;BME280;3946;48.958;8.284;2023-12-20T04:41:50;100755.09;;;6.00;100.00
163;BME280;3946;48.958;8.284;2023-12-20T04:44:36;100756.78;;;6.01;100.00
163;BME280;3946;48.958;8.284;2023-12-20T04:47:21;100745.66;;;6.00;100.00
163;BME280;3946;48.958;8.284;2023-12-20T04:50:08;100745.78;;;5.97;100.00
163;BME280;3946;48.958;8.284;2023-12-20T04:52:55;100748.09;;;6.03;100.00
163;BME280;3946;48.958;8.284;2023-12-20T04:55:40;100742.81;;;6.06;100.00
163;BME280;3946;48.958;8.284;2023-12-20T04:58:26;100753.22;;;6.03;100.00
163;BME280;3946;48.958;8.284;2023-12-20T05:01:11;100755.22;;;5.96;100.00
163;BME280;3946;48.958;8.284;2023-12-20T05:03:56;100755.81;;;6.03;100.00
163;BME280;3946;48.958;8.284;2023-12-20T05:06:42;100752.28;;;6.06;100.00
163;BME280;3946;48.958;8.284;2023-12-20T05:09:28;100757.41;;;6.06;100.00
163;BME280;3946;48.958;8.284;2023-12-20T05:12:14;100760.88;;;6.05;100.00
163;BME280;3946;48.958;8.284;2023-12-20T05:14:59;100760.06;;;6.04;100.00
163;BME280;3946;48.958;8.284;2023-12-20T05:17:44;100759.88;;;6.09;100.00
163;BME280;3946;48.958;8.284;2023-12-20T05:20:29;100758.25;;;6.06;100.00
163;BME280;3946;48.958;8.284;2023-12-20T05:23:15;100762.88;;;5.98;100.00
163;BME280;3946;48.958;8.284;2023-12-20T05:26:02;100768.03;;;5.98;100.00
163;BME280;3946;48.958;8.284;2023-12-20T05:28:47;100768.03;;;5.98;100.00
163;BME280;3946;48.958;8.284;2023-12-20T05:31:33;100765.09;;;6.07;100.00
163;BME280;3946;48.958;8.284;2023-12-20T05:34:18;100773.59;;;6.09;100.00
163;BME280;3946;48.958;8.284;2023-12-20T05:37:04;100774.66;;;6.04;100.00
163;BME280;3946;48.958;8.284;2023-12-20T05:39:49;100781.19;;;6.12;100.00
163;BME280;3946;48.958;8.284;2023-12-20T05:42:36;100775.25;;;6.10;100.00
163;BME280;3946;48.958;8.284;2023-12-20T05:45:21;100772.91;;;6.04;100.00
163;BME280;3946;48.958;8.284;2023-12-20T05:48:07;100779.09;;;6.00;100.00
163;BME280;3946;48.958;8.284;2023-12-20T05:50:52;100780.63;;;6.04;100.00
163;BME280;3946;48.958;8.284;2023-12-20T05:53:37;100774.31;;;6.13;100.00
163;BME280;3946;48.958;8.284;2023-12-20T05:56:22;100778.91;;;6.05;100.00
163;BME280;3946;48.958;8.284;2023-12-20T05:59:09;100780.47;;;6.09;100.00
163;BME280;3946;48.958;8.284;2023-12-20T06:01:54;100790.84;;;6.06;100.00
163;BME280;3946;48.958;8.284;2023-12-20T06:04:42;100789.53;;;6.17;100.00
163;BME280;3946;48.958;8.284;2023-12-20T06:07:27;100805.13;;;6.14;100.00
163;BME280;3946;48.958;8.284;2023-12-20T06:10:13;100817.16;;;6.14;100.00
163;BME280;3946;48.958;8.284;2023-12-20T06:12:59;100820.00;;;6.06;100.00
163;BME280;3946;48.958;8.284;2023-12-20T06:15:46;100820.88;;;6.05;100.00
163;BME280;3946;48.958;8.284;2023-12-20T06:18:31;100825.19;;;6.05;100.00
163;BME280;3946;48.958;8.284;2023-12-20T06:21:17;100830.53;;;6.00;100.00
163;BME280;3946;48.958;8.284;2023-12-20T06:24:02;100826.88;;;6.06;100.00
163;BME280;3946;48.958;8.284;2023-12-20T06:26:47;100835.59;;;6.02;100.00
163;BME280;3946;48.958;8.284;2023-12-20T06:29:33;100840.50;;;6.08;100.00
163;BME280;3946;48.958;8.284;2023-12-20T06:32:19;100852.53;;;6.07;100.00
163;BME280;3946;48.958;8.284;2023-12-20T06:35:08;100847.34;;;6.09;100.00
163;BME280;3946;48.958;8.284;2023-12-20T06:37:53;100838.94;;;6.04;100.00
163;BME280;3946;48.958;8.284;2023-12-20T06:40:38;100835.09;;;6.15;100.00
163;BME280;3946;48.958;8.284;2023-12-20T06:43:23;100852.28;;;8.19;100.00
163;BME280;3946;48.958;8.284;2023-12-20T06:46:08;100835.78;;;8.42;100.00
163;BME280;3946;48.958;8.284;2023-12-20T06:48:55;100832.63;;;8.17;100.00
163;BME280;3946;48.958;8.284;2023-12-20T06:51:41;100840.03;;;8.43;100.00
163;BME280;3946;48.958;8.284;2023-12-20T06:54:26;100844.25;;;7.88;100.00
163;BME280;3946;48.958;8.284;2023-12-20T06:57:11;100847.63;;;7.10;100.00
163;BME280;3946;48.958;8.284;2023-12-20T06:59:57;100850.78;;;6.75;100.00
163;BME280;3946;48.958;8.284;2023-12-20T07:02:43;100853.84;;;6.41;100.00
163;BME280;3946;48.958;8.284;2023-12-20T07:05:29;100871.53;;;6.03;100.00
163;BME280;3946;48.958;8.284;2023-12-20T07:08:15;100878.88;;;5.90;100.00
163;BME280;3946;48.958;8.284;2023-12-20T07:11:00;100890.50;;;5.76;100.00
163;BME280;3946;48.958;8.284;2023-12-20T07:13:45;100903.50;;;5.97;100.00
163;BME280;3946;48.958;8.284;2023-12-20T07:16:31;100902.06;;;5.89;100.00
163;BME280;3946;48.958;8.284;2023-12-20T07:19:16;100896.66;;;5.96;100.00
163;BME280;3946;48.958;8.284;2023-12-20T07:22:03;100894.38;;;5.87;100.00
163;BME280;3946;48.958;8.284;2023-12-20T07:24:49;100893.38;;;5.68;100.00
163;BME280;3946;48.958;8.284;2023-12-20T07:27:36;100903.47;;;5.73;100.00
163;BME280;3946;48.958;8.284;2023-12-20T07:30:21;100902.31;;;5.56;100.00
163;BME280;3946;48.958;8.284;2023-12-20T07:33:07;100896.22;;;5.59;100.00
163;BME280;3946;48.958;8.284;2023-12-20T07:35:53;100895.53;;;5.54;100.00
163;BME280;3946;48.958;8.284;2023-12-20T07:38:39;100899.97;;;5.50;100.00
163;BME280;3946;48.958;8.284;2023-12-20T07:41:26;100903.38;;;5.51;100.00
163;BME280;3946;48.958;8.284;2023-12-20T07:44:11;100895.53;;;5.54;100.00
163;BME280;3946;48.958;8.284;2023-12-20T07:46:57;100890.69;;;5.46;100.00
163;BME280;3946;48.958;8.284;2023-12-20T07:49:42;100896.75;;;5.44;100.00
163;BME280;3946;48.958;8.284;2023-12-20T07:52:29;100892.34;;;5.47;100.00
163;BME280;3946;48.958;8.284;2023-12-20T07:55:16;100902.03;;;5.39;100.00
163;BME280;3946;48.958;8.284;2023-12-20T07:58:02;100904.66;;;5.38;100.00
163;BME280;3946;48.958;8.284;2023-12-20T08:00:48;100916.63;;;5.39;100.00
163;BME280;3946;48.958;8.284;2023-12-20T08:03:34;100926.09;;;5.37;100.00
163;BME280;3946;48.958;8.284;2023-12-20T08:06:19;100914.78;;;5.17;100.00
163;BME280;3946;48.958;8.284;2023-12-20T08:09:05;100922.53;;;5.16;100.00
163;BME280;3946;48.958;8.284;2023-12-20T08:11:52;100927.16;;;5.05;100.00
163;BME280;3946;48.958;8.284;2023-12-20T08:14:37;100932.00;;;5.14;100.00
163;BME280;3946;48.958;8.284;2023-12-20T08:17:22;100939.13;;;5.04;100.00
163;BME280;3946;48.958;8.284;2023-12-20T08:20:08;100944.91;;;5.12;100.00
163;BME280;3946;48.958;8.284;2023-12-20T08:22:53;100949.38;;;5.06;100.00
163;BME280;3946;48.958;8.284;2023-12-20T08:25:38;100951.91;;;5.07;100.00
163;BME280;3946;48.958;8.284;2023-12-20T08:28:25;100948.31;;;5.13;100.00
163;BME280;3946;48.958;8.284;2023-12-20T08:31:13;100950.06;;;5.11;100.00
163;BME280;3946;48.958;8.284;2023-12-20T08:33:59;100950.03;;;5.12;100.00
163;BME280;3946;48.958;8.284;2023-12-20T08:36:44;100955.13;;;5.14;100.00
163;BME280;3946;48.958;8.284;2023-12-20T08:39:29;100967.88;;;5.17;100.00
163;BME280;3946;48.958;8.284;2023-12-20T08:42:17;100971.72;;;5.30;100.00
163;BME280;3946;48.958;8.284;2023-12-20T08:45:05;100975.09;;;5.32;100.00
163;BME280;3946;48.958;8.284;2023-12-20T08:47:50;100964.63;;;5.37;100.00
163;BME280;3946;48.958;8.284;2023-12-20T08:50:35;100972.03;;;5.47;100.00
163;BME280;3946;48.958;8.284;2023-12-20T08:53:21;100972.03;;;5.47;100.00
163;BME280;3946;48.958;8.284;2023-12-20T08:56:06;100967.78;;;5.46;100.00
163;BME280;3946;48.958;8.284;2023-12-20T08:58:52;100965.38;;;5.40;100.00
163;BME280;3946;48.958;8.284;2023-12-20T09:01:38;100955.47;;;5.30;100.00
163;BME280;3946;48.958;8.284;2023-12-20T09:04:24;100952.06;;;5.29;100.00
163;BME280;3946;48.958;8.284;2023-12-20T09:07:21;100961.31;;;5.35;100.00
163;BME280;3946;48.958;8.284;2023-12-20T09:10:06;100952.09;;;5.27;100.00
163;BME280;3946;48.958;8.284;2023-12-20T09:12:52;100956.69;;;5.44;100.00
163;BME280;3946;48.958;8.284;2023-12-20T09:15:40;100963.81;;;5.62;100.00
163;BME280;3946;48.958;8.284;2023-12-20T09:18:27;100954.09;;;5.71;100.00
163;BME280;3946;48.958;8.284;2023-12-20T09:21:12;100945.63;;;5.93;100.00
163;BME280;3946;48.958;8.284;2023-12-20T09:23:57;100943.75;;;5.99;100.00
163;BME280;3946;48.958;8.284;2023-12-20T09:26:43;100946.56;;;6.16;100.00
163;BME280;3946;48.958;8.284;2023-12-20T09:29:28;100940.22;;;6.24;100.00
163;BME280;3946;48.958;8.284;2023-12-20T09:32:13;100934.41;;;6.19;100.00
163;BME280;3946;48.958;8.284;2023-12-20T09:35:00;100933.91;;;6.10;100.00
163;BME280;3946;48.958;8.284;2023-12-20T09:37:46;100932.50;;;6.24;100.00
163;BME280;3946;48.958;8.284;2023-12-20T09:40:32;100932.50;;;6.24;100.00
163;BME280;3946;48.958;8.284;2023-12-20T09:43:19;100941.69;;;6.31;100.00
163;BME280;3946;48.958;8.284;2023-12-20T09:46:06;100942.84;;;6.46;100.00
163;BME280;3946;48.958;8.284;2023-12-20T09:48:52;100950.34;;;6.52;100.00
163;BME280;3946;48.958;8.284;2023-12-20T09:51:40;100957.72;;;6.61;100.00
163;BME280;3946;48.958;8.284;2023-12-20T09:54:27;100946.91;;;6.75;100.00
163;BME280;3946;48.958;8.284;2023-12-20T09:57:13;100953.78;;;6.75;100.00
163;BME280;3946;48.958;8.284;2023-12-20T09:59:58;100945.13;;;6.77;100.00
163;BME280;3946;48.958;8.284;2023-12-20T10:02:50;100949.13;;;6.84;100.00
163;BME280;3946;48.958;8.284;2023-12-20T10:05:35;100947.63;;;6.79;100.00
163;BME280;3946;48.958;8.284;2023-12-20T10:08:22;100953.78;;;6.75;100.00
163;BME280;3946;48.958;8.284;2023-12-20T10:11:08;100944.22;;;6.78;100.00
163;BME280;3946;48.958;8.284;2023-12-20T10:13:59;100940.28;;;6.68;100.00
163;BME280;3946;48.958;8.284;2023-12-20T10:16:44;100938.69;;;6.65;100.00
163;BME280;3946;48.958;8.284;2023-12-20T10:19:29;100926.53;;;6.69;100.00
163;BME280;3946;48.958;8.284;2023-12-20T10:22:15;100931.09;;;6.62;100.00
163;BME280;3946;48.958;8.284;2023-12-20T10:25:01;100926.53;;;6.69;100.00
163;BME280;3946;48.958;8.284;2023-12-20T10:27:47;100924.06;;;6.66;100.00
163;BME280;3946;48.958;8.284;2023-12-20T10:30:32;100930.13;;;6.65;100.00
163;BME280;3946;48.958;8.284;2023-12-20T10:33:24;100924.06;;;6.66;100.00
163;BME280;3946;48.958;8.284;2023-12-20T10:36:13;100928.75;;;6.78;100.00
163;BME280;3946;48.958;8.284;2023-12-20T10:38:59;100917.78;;;6.73;100.00
163;BME280;3946;48.958;8.284;2023-12-20T10:41:47;100907.38;;;6.76;100.00
163;BME280;3946;48.958;8.284;2023-12-20T10:44:32;100909.41;;;6.90;100.00
163;BME280;3946;48.958;8.284;2023-12-20T10:47:18;100908.13;;;7.00;100.00
163;BME280;3946;48.958;8.284;2023-12-20T10:50:06;100897.13;;;6.96;100.00
163;BME280;3946;48.958;8.284;2023-12-20T10:52:53;100900.66;;;6.94;100.00
163;BME280;3946;48.958;8.284;2023-12-20T10:55:39;100887.97;;;6.89;100.00
163;BME280;3946;48.958;8.284;2023-12-20T10:58:29;100902.88;;;7.03;100.00
163;BME280;3946;48.958;8.284;2023-12-20T11:01:18;100898.66;;;7.00;100.00
163;BME280;3946;48.958;8.284;2023-12-20T11:04:06;100896.69;;;7.07;100.00
163;BME280;3946;48.958;8.284;2023-12-20T11:06:56;100876.69;;;7.14;100.00
163;BME280;3946;48.958;8.284;2023-12-20T11:09:48;100882.09;;;7.28;100.00
163;BME280;3946;48.958;8.284;2023-12-20T11:12:37;100883.31;;;7.40;100.00
163;BME280;3946;48.958;8.284;2023-12-20T11:15:28;100878.09;;;7.41;100.00
163;BME280;3946;48.958;8.284;2023-12-20T11:18:14;100878.03;;;7.22;100.00
163;BME280;3946;48.958;8.284;2023-12-20T11:21:05;100874.88;;;7.36;100.00
163;BME280;3946;48.958;8.284;2023-12-20T11:23:50;100877.97;;;7.44;100.00
163;BME280;3946;48.958;8.284;2023-12-20T11:26:35;100879.47;;;7.29;100.00
163;BME280;3946;48.958;8.284;2023-12-20T11:29:34;100881.06;;;7.32;100.00
163;BME280;3946;48.958;8.284;2023-12-20T11:32:30;100881.38;;;7.24;100.00
163;BME280;3946;48.958;8.284;2023-12-20T11:35:18;100871.38;;;7.17;100.00
163;BME280;3946;48.958;8.284;2023-12-20T11:38:04;100880.44;;;7.27;100.00
163;BME280;3946;48.958;8.284;2023-12-20T11:40:49;100885.03;;;7.19;100.00
163;BME280;3946;48.958;8.284;2023-12-20T11:43:36;100875.31;;;7.05;100.00
163;BME280;3946;48.958;8.284;2023-12-20T11:46:22;100857.19;;;6.86;100.00
163;BME280;3946;48.958;8.284;2023-12-20T11:49:08;100860.28;;;6.94;100.00
163;BME280;3946;48.958;8.284;2023-12-20T11:51:54;100862.53;;;7.02;100.00
163;BME280;3946;48.958;8.284;2023-12-20T11:54:39;100858.72;;;7.12;100.00
163;BME280;3946;48.958;8.284;2023-12-20T11:57:25;100859.59;;;7.11;100.00
163;BME280;3946;48.958;8.284;2023-12-20T12:00:10;100870.34;;;7.21;100.00
163;BME280;3946;48.958;8.284;2023-12-20T12:02:59;100862.38;;;7.27;100.00
163;BME280;3946;48.958;8.284;2023-12-20T12:05:48;100864.97;;;7.27;100.00
163;BME280;3946;48.958;8.284;2023-12-20T12:08:33;100857.28;;;7.25;100.00
163;BME280;3946;48.958;8.284;2023-12-20T12:11:19;100863.34;;;7.24;100.00
163;BME280;3946;48.958;8.284;2023-12-20T12:14:04;100863.16;;;7.29;100.00
163;BME280;3946;48.958;8.284;2023-12-20T12:16:50;100853.22;;;7.20;100.00
163;BME280;3946;48.958;8.284;2023-12-20T12:19:37;100851.03;;;7.31;100.00
163;BME280;3946;48.958;8.284;2023-12-20T12:22:24;100857.28;;;7.25;100.00
163;BME280;3946;48.958;8.284;2023-12-20T12:25:12;100852.84;;;7.29;100.00
163;BME280;3946;48.958;8.284;2023-12-20T12:27:58;100854.41;;;7.13;100.00
163;BME280;3946;48.958;8.284;2023-12-20T12:30:56;100843.88;;;7.17;100.00
163;BME280;3946;48.958;8.284;2023-12-20T12:33:41;100845.81;;;7.12;100.00
163;BME280;3946;48.958;8.284;2023-12-20T12:36:27;100848.75;;;7.03;100.00
163;BME280;3946;48.958;8.284;2023-12-20T12:39:14;100855.78;;;6.99;100.00
163;BME280;3946;48.958;8.284;2023-12-20T12:42:00;100848.81;;;7.01;100.00
163;BME280;3946;48.958;8.284;2023-12-20T12:44:45;100842.06;;;6.99;100.00
163;BME280;3946;48.958;8.284;2023-12-20T12:47:31;100838.34;;;7.06;100.00
163;BME280;3946;48.958;8.284;2023-12-20T12:50:16;100839.25;;;7.05;100.00
163;BME280;3946;48.958;8.284;2023-12-20T12:53:01;100826.28;;;6.86;100.00
163;BME280;3946;48.958;8.284;2023-12-20T12:55:49;100840.00;;;6.87;100.00
163;BME280;3946;48.958;8.284;2023-12-20T12:58:34;100829.84;;;6.82;100.00
163;BME280;3946;48.958;8.284;2023-12-20T13:01:20;100849.59;;;7.03;100.00
163;BME280;3946;48.958;8.284;2023-12-20T13:04:05;100842.78;;;7.02;100.00
163;BME280;3946;48.958;8.284;2023-12-20T13:06:54;100836.22;;;6.95;100.00
163;BME280;3946;48.958;8.284;2023-12-20T13:09:41;100834.00;;;6.86;100.00
163;BME280;3946;48.958;8.284;2023-12-20T13:12:27;100836.22;;;6.95;100.00
163;BME280;3946;48.958;8.284;2023-12-20T13:15:13;100837.34;;;6.88;100.00
163;BME280;3946;48.958;8.284;2023-12-20T13:17:58;100834.78;;;6.88;100.00
163;BME280;3946;48.958;8.284;2023-12-20T13:20:45;100833.88;;;6.89;100.00
163;BME280;3946;48.958;8.284;2023-12-20T13:23:30;100837.53;;;6.84;100.00
163;BME280;3946;48.958;8.284;2023-12-20T13:26:15;100835.63;;;6.89;100.00
163;BME280;3946;48.958;8.284;2023-12-20T13:29:03;100827.28;;;6.82;100.00
163;BME280;3946;48.958;8.284;2023-12-20T13:31:49;100832.84;;;6.93;100.00
163;BME280;3946;48.958;8.284;2023-12-20T13:34:34;100820.16;;;6.89;100.00
163;BME280;3946;48.958;8.284;2023-12-20T13:37:19;100820.16;;;6.89;100.00
163;BME280;3946;48.958;8.284;2023-12-20T13:40:06;100816.22;;;7.00;100.00
163;BME280;3946;48.958;8.284;2023-12-20T13:42:51;100810.63;;;6.91;100.00
163;BME280;3946;48.958;8.284;2023-12-20T13:45:37;100804.00;;;6.85;100.00
163;BME280;3946;48.958;8.284;2023-12-20T13:48:23;100795.38;;;6.86;100.00
163;BME280;3946;48.958;8.284;2023-12-20T13:51:08;100794.34;;;6.90;100.00
163;BME280;3946;48.958;8.284;2023-12-20T13:53:54;100792.22;;;6.80;100.00
163;BME280;3946;48.958;8.284;2023-12-20T13:56:39;100793.91;;;6.81;100.00
163;BME280;3946;48.958;8.284;2023-12-20T13:59:24;100795.38;;;6.86;100.00
163;BME280;3946;48.958;8.284;2023-12-20T14:02:11;100786.84;;;6.84;100.00
163;BME280;3946;48.958;8.284;2023-12-20T14:04:57;100768.97;;;6.81;100.00
163;BME280;3946;48.958;8.284;2023-12-20T14:07:42;100777.66;;;6.79;100.00
163;BME280;3946;48.958;8.284;2023-12-20T14:10:28;100775.28;;;6.74;100.00
163;BME280;3946;48.958;8.284;2023-12-20T14:13:14;100775.94;;;6.79;100.00
163;BME280;3946;48.958;8.284;2023-12-20T14:15:59;100780.19;;;6.80;100.00
163;BME280;3946;48.958;8.284;2023-12-20T14:18:47;100775.94;;;6.79;100.00
163;BME280;3946;48.958;8.284;2023-12-20T14:21:32;100774.97;;;6.82;100.00
163;BME280;3946;48.958;8.284;2023-12-20T14:24:17;100765.75;;;6.76;100.00
163;BME280;3946;48.958;8.284;2023-12-20T14:27:03;100771.81;;;6.75;100.00
163;BME280;3946;48.958;8.284;2023-12-20T14:29:48;100768.88;;;6.83;100.00
163;BME280;3946;48.958;8.284;2023-12-20T14:32:34;100768.38;;;6.75;100.00
163;BME280;3946;48.958;8.284;2023-12-20T14:35:22;100773.53;;;6.75;100.00
163;BME280;3946;48.958;8.284;2023-12-20T14:38:07;100771.97;;;6.71;100.00
163;BME280;3946;48.958;8.284;2023-12-20T14:40:54;100760.22;;;6.65;100.00
163;BME280;3946;48.958;8.284;2023-12-20T14:43:39;100776.16;;;6.73;100.00
163;BME280;3946;48.958;8.284;2023-12-20T14:49:34;100779.50;;;6.55;100.00
163;BME280;3946;48.958;8.284;2023-12-20T14:52:22;100756.59;;;6.49;100.00
163;BME280;3946;48.958;8.284;2023-12-20T14:55:07;100771.00;;;6.53;100.00
163;BME280;3946;48.958;8.284;2023-12-20T14:57:53;100766.94;;;6.47;100.00
163;BME280;3946;48.958;8.284;2023-12-20T15:00:38;100767.13;;;6.43;100.00
163;BME280;3946;48.958;8.284;2023-12-20T15:03:24;100767.13;;;6.43;100.00
163;BME280;3946;48.958;8.284;2023-12-20T15:06:09;100759.84;;;6.32;100.00